sensor_id;sensor_type;location;lat;lon;timestamp;P1;durP1;ratioP1;P2;durP2;ratioP2
2213;SDS011;1113;42.018;23.986;2023-07-13T00:01:43;16.07;;;14.37;;
2213;SDS011;1113;42.018;23.986;2023-07-13T00:04:11;16.50;;;14.70;;
2213;SDS011;1113;42.018;23.986;2023-07-13T00:06:41;15.87;;;14.13;;
2213;SDS011;1113;42.018;23.986;2023-07-13T00:09:10;16.00;;;13.77;;
2213;SDS011;1113;42.018;23.986;2023-07-13T00:11:38;16.50;;;14.23;;
2213;SDS011;1113;42.018;23.986;2023-07-13T00:14:05;15.73;;;14.13;;
2213;SDS011;1113;42.018;23.986;2023-07-13T00:16:33;16.47;;;14.77;;
2213;SDS011;1113;42.018;23.986;2023-07-13T00:19:00;14.83;;;13.33;;
2213;SDS011;1113;42.018;23.986;2023-07-13T00:21:27;16.23;;;14.53;;
2213;SDS011;1113;42.018;23.986;2023-07-13T00:23:55;17.83;;;14.67;;
2213;SDS011;1113;42.018;23.986;2023-07-13T00:26:22;16.30;;;14.70;;
2213;SDS011;1113;42.018;23.986;2023-07-13T00:28:49;16.57;;;14.97;;
2213;SDS011;1113;42.018;23.986;2023-07-13T00:31:16;15.47;;;13.93;;
2213;SDS011;1113;42.018;23.986;2023-07-13T00:33:43;16.50;;;14.80;;
2213;SDS011;1113;42.018;23.986;2023-07-13T00:36:10;15.20;;;13.60;;
2213;SDS011;1113;42.018;23.986;2023-07-13T00:38:38;18.30;;;13.80;;
2213;SDS011;1113;42.018;23.986;2023-07-13T00:41:06;15.87;;;14.10;;
2213;SDS011;1113;42.018;23.986;2023-07-13T00:43:33;15.97;;;14.20;;
2213;SDS011;1113;42.018;23.986;2023-07-13T00:46:12;16.43;;;14.73;;
2213;SDS011;1113;42.018;23.986;2023-07-13T00:48:39;14.93;;;13.33;;
2213;SDS011;1113;42.018;23.986;2023-07-13T00:51:06;15.57;;;13.77;;
2213;SDS011;1113;42.018;23.986;2023-07-13T00:53:34;16.90;;;13.63;;
2213;SDS011;1113;42.018;23.986;2023-07-13T00:56:01;14.60;;;13.10;;
2213;SDS011;1113;42.018;23.986;2023-07-13T00:58:29;18.80;;;16.87;;
2213;SDS011;1113;42.018;23.986;2023-07-13T01:00:56;16.30;;;14.60;;
2213;SDS011;1113;42.018;23.986;2023-07-13T01:03:24;16.50;;;13.90;;
2213;SDS011;1113;42.018;23.986;2023-07-13T01:05:51;16.60;;;14.77;;
2213;SDS011;1113;42.018;23.986;2023-07-13T01:08:19;16.53;;;14.73;;
2213;SDS011;1113;42.018;23.986;2023-07-13T01:10:53;17.33;;;14.30;;
2213;SDS011;1113;42.018;23.986;2023-07-13T01:13:20;16.57;;;14.87;;
2213;SDS011;1113;42.018;23.986;2023-07-13T01:15:49;15.27;;;13.77;;
2213;SDS011;1113;42.018;23.986;2023-07-13T01:18:18;16.03;;;14.30;;
2213;SDS011;1113;42.018;23.986;2023-07-13T01:20:50;18.87;;;14.00;;
2213;SDS011;1113;42.018;23.986;2023-07-13T01:23:17;16.50;;;14.70;;
2213;SDS011;1113;42.018;23.986;2023-07-13T01:25:44;17.10;;;14.00;;
2213;SDS011;1113;42.018;23.986;2023-07-13T01:28:11;19.00;;;15.50;;
2213;SDS011;1113;42.018;23.986;2023-07-13T01:30:39;17.30;;;15.70;;
2213;SDS011;1113;42.018;23.986;2023-07-13T01:33:06;16.70;;;14.93;;
2213;SDS011;1113;42.018;23.986;2023-07-13T01:35:35;17.07;;;14.77;;
2213;SDS011;1113;42.018;23.986;2023-07-13T01:38:03;16.13;;;14.53;;
2213;SDS011;1113;42.018;23.986;2023-07-13T01:40:31;16.43;;;14.73;;
2213;SDS011;1113;42.018;23.986;2023-07-13T01:42:58;16.57;;;14.87;;
2213;SDS011;1113;42.018;23.986;2023-07-13T01:45:26;16.80;;;15.00;;
2213;SDS011;1113;42.018;23.986;2023-07-13T01:47:53;16.50;;;14.77;;
2213;SDS011;1113;42.018;23.986;2023-07-13T01:50:20;18.77;;;16.80;;
2213;SDS011;1113;42.018;23.986;2023-07-13T01:52:47;18.37;;;16.57;;
2213;SDS011;1113;42.018;23.986;2023-07-13T01:55:15;19.20;;;15.53;;
2213;SDS011;1113;42.018;23.986;2023-07-13T01:57:42;20.43;;;15.17;;
2213;SDS011;1113;42.018;23.986;2023-07-13T02:00:10;19.23;;;17.20;;
2213;SDS011;1113;42.018;23.986;2023-07-13T02:02:38;16.93;;;14.93;;
2213;SDS011;1113;42.018;23.986;2023-07-13T02:05:05;17.20;;;15.40;;
2213;SDS011;1113;42.018;23.986;2023-07-13T02:07:33;18.23;;;15.00;;
2213;SDS011;1113;42.018;23.986;2023-07-13T02:10:00;16.50;;;14.70;;
2213;SDS011;1113;42.018;23.986;2023-07-13T02:12:29;16.10;;;14.40;;
2213;SDS011;1113;42.018;23.986;2023-07-13T02:14:56;15.47;;;13.87;;
2213;SDS011;1113;42.018;23.986;2023-07-13T02:17:23;17.37;;;15.23;;
2213;SDS011;1113;42.018;23.986;2023-07-13T02:19:50;15.50;;;14.00;;
2213;SDS011;1113;42.018;23.986;2023-07-13T02:22:17;17.07;;;14.37;;
2213;SDS011;1113;42.018;23.986;2023-07-13T02:24:44;15.63;;;14.00;;
2213;SDS011;1113;42.018;23.986;2023-07-13T02:27:11;16.33;;;14.63;;
2213;SDS011;1113;42.018;23.986;2023-07-13T02:29:40;18.43;;;16.33;;
2213;SDS011;1113;42.018;23.986;2023-07-13T02:32:07;16.80;;;14.93;;
2213;SDS011;1113;42.018;23.986;2023-07-13T02:34:35;16.20;;;14.50;;
2213;SDS011;1113;42.018;23.986;2023-07-13T02:37:02;16.27;;;14.57;;
2213;SDS011;1113;42.018;23.986;2023-07-13T02:39:29;18.60;;;14.67;;
2213;SDS011;1113;42.018;23.986;2023-07-13T02:41:58;16.80;;;14.10;;
2213;SDS011;1113;42.018;23.986;2023-07-13T02:44:25;15.40;;;13.77;;
2213;SDS011;1113;42.018;23.986;2023-07-13T02:46:56;18.27;;;14.73;;
2213;SDS011;1113;42.018;23.986;2023-07-13T02:49:24;21.20;;;15.70;;
2213;SDS011;1113;42.018;23.986;2023-07-13T02:51:51;16.63;;;14.43;;
2213;SDS011;1113;42.018;23.986;2023-07-13T02:54:18;16.47;;;14.40;;
2213;SDS011;1113;42.018;23.986;2023-07-13T02:56:45;16.30;;;14.60;;
2213;SDS011;1113;42.018;23.986;2023-07-13T02:59:12;17.80;;;15.90;;
2213;SDS011;1113;42.018;23.986;2023-07-13T03:01:40;16.63;;;14.30;;
2213;SDS011;1113;42.018;23.986;2023-07-13T03:04:08;15.90;;;13.63;;
2213;SDS011;1113;42.018;23.986;2023-07-13T03:06:36;15.67;;;14.00;;
2213;SDS011;1113;42.018;23.986;2023-07-13T03:09:03;16.30;;;14.60;;
2213;SDS011;1113;42.018;23.986;2023-07-13T03:11:30;16.77;;;15.10;;
2213;SDS011;1113;42.018;23.986;2023-07-13T03:13:57;16.47;;;14.13;;
2213;SDS011;1113;42.018;23.986;2023-07-13T03:16:24;17.00;;;15.33;;
2213;SDS011;1113;42.018;23.986;2023-07-13T03:18:51;15.80;;;14.20;;
2213;SDS011;1113;42.018;23.986;2023-07-13T03:21:20;16.27;;;14.57;;
2213;SDS011;1113;42.018;23.986;2023-07-13T03:23:48;15.73;;;14.13;;
2213;SDS011;1113;42.018;23.986;2023-07-13T03:26:15;15.57;;;13.63;;
2213;SDS011;1113;42.018;23.986;2023-07-13T03:28:43;15.47;;;13.97;;
2213;SDS011;1113;42.018;23.986;2023-07-13T03:31:11;16.97;;;13.63;;
2213;SDS011;1113;42.018;23.986;2023-07-13T03:33:38;17.80;;;14.03;;
2213;SDS011;1113;42.018;23.986;2023-07-13T03:36:06;21.53;;;15.33;;
2213;SDS011;1113;42.018;23.986;2023-07-13T03:38:35;19.20;;;16.87;;
2213;SDS011;1113;42.018;23.986;2023-07-13T03:41:02;15.90;;;14.10;;
2213;SDS011;1113;42.018;23.986;2023-07-13T03:43:29;20.43;;;15.23;;
2213;SDS011;1113;42.018;23.986;2023-07-13T03:45:55;16.53;;;14.80;;
2213;SDS011;1113;42.018;23.986;2023-07-13T03:48:22;15.60;;;14.00;;
2213;SDS011;1113;42.018;23.986;2023-07-13T03:50:49;15.33;;;13.63;;
2213;SDS011;1113;42.018;23.986;2023-07-13T03:53:16;16.93;;;13.73;;
2213;SDS011;1113;42.018;23.986;2023-07-13T03:55:45;20.70;;;15.27;;
2213;SDS011;1113;42.018;23.986;2023-07-13T03:58:29;17.87;;;15.50;;
2213;SDS011;1113;42.018;23.986;2023-07-13T04:00:56;18.00;;;13.77;;
2213;SDS011;1113;42.018;23.986;2023-07-13T04:03:24;16.20;;;13.30;;
2213;SDS011;1113;42.018;23.986;2023-07-13T04:05:54;17.00;;;15.20;;
2213;SDS011;1113;42.018;23.986;2023-07-13T04:08:24;20.20;;;14.87;;
2213;SDS011;1113;42.018;23.986;2023-07-13T04:10:53;15.27;;;13.67;;
2213;SDS011;1113;42.018;23.986;2023-07-13T04:13:20;13.57;;;12.27;;
2213;SDS011;1113;42.018;23.986;2023-07-13T04:15:47;14.57;;;12.27;;
2213;SDS011;1113;42.018;23.986;2023-07-13T04:18:14;15.20;;;13.57;;
2213;SDS011;1113;42.018;23.986;2023-07-13T04:20:41;14.93;;;13.53;;
2213;SDS011;1113;42.018;23.986;2023-07-13T04:23:09;13.83;;;12.43;;
2213;SDS011;1113;42.018;23.986;2023-07-13T04:25:36;18.30;;;13.70;;
2213;SDS011;1113;42.018;23.986;2023-07-13T04:28:04;15.73;;;14.10;;
2213;SDS011;1113;42.018;23.986;2023-07-13T04:30:32;16.30;;;12.77;;
2213;SDS011;1113;42.018;23.986;2023-07-13T04:32:59;16.47;;;13.00;;
2213;SDS011;1113;42.018;23.986;2023-07-13T04:35:26;13.00;;;11.70;;
2213;SDS011;1113;42.018;23.986;2023-07-13T04:37:54;15.87;;;12.50;;
2213;SDS011;1113;42.018;23.986;2023-07-13T04:40:21;14.23;;;12.73;;
2213;SDS011;1113;42.018;23.986;2023-07-13T04:42:48;16.70;;;13.90;;
2213;SDS011;1113;42.018;23.986;2023-07-13T04:45:17;16.33;;;13.37;;
2213;SDS011;1113;42.018;23.986;2023-07-13T04:47:44;16.57;;;14.40;;
2213;SDS011;1113;42.018;23.986;2023-07-13T04:50:12;18.10;;;16.30;;
2213;SDS011;1113;42.018;23.986;2023-07-13T04:52:40;17.53;;;15.83;;
2213;SDS011;1113;42.018;23.986;2023-07-13T04:55:08;15.63;;;13.90;;
2213;SDS011;1113;42.018;23.986;2023-07-13T04:57:36;16.80;;;15.00;;
2213;SDS011;1113;42.018;23.986;2023-07-13T05:00:04;16.80;;;14.50;;
2213;SDS011;1113;42.018;23.986;2023-07-13T05:02:34;16.60;;;14.90;;
2213;SDS011;1113;42.018;23.986;2023-07-13T05:05:01;17.20;;;14.30;;
2213;SDS011;1113;42.018;23.986;2023-07-13T05:07:31;17.23;;;14.20;;
2213;SDS011;1113;42.018;23.986;2023-07-13T05:09:58;18.20;;;14.27;;
2213;SDS011;1113;42.018;23.986;2023-07-13T05:12:25;16.40;;;14.33;;
2213;SDS011;1113;42.018;23.986;2023-07-13T05:14:52;16.77;;;14.10;;
2213;SDS011;1113;42.018;23.986;2023-07-13T05:17:19;16.93;;;14.17;;
2213;SDS011;1113;42.018;23.986;2023-07-13T05:19:47;16.07;;;14.47;;
2213;SDS011;1113;42.018;23.986;2023-07-13T05:22:14;15.97;;;14.37;;
2213;SDS011;1113;42.018;23.986;2023-07-13T05:24:42;16.10;;;14.50;;
2213;SDS011;1113;42.018;23.986;2023-07-13T05:27:09;17.80;;;13.80;;
2213;SDS011;1113;42.018;23.986;2023-07-13T05:29:36;18.57;;;14.53;;
2213;SDS011;1113;42.018;23.986;2023-07-13T05:32:04;16.03;;;14.43;;
2213;SDS011;1113;42.018;23.986;2023-07-13T05:34:31;17.10;;;14.27;;
2213;SDS011;1113;42.018;23.986;2023-07-13T05:36:59;22.83;;;20.43;;
2213;SDS011;1113;42.018;23.986;2023-07-13T05:39:26;26.30;;;22.23;;
2213;SDS011;1113;42.018;23.986;2023-07-13T05:41:54;24.90;;;22.40;;
2213;SDS011;1113;42.018;23.986;2023-07-13T05:44:21;22.00;;;19.07;;
2213;SDS011;1113;42.018;23.986;2023-07-13T05:46:48;18.40;;;16.27;;
2213;SDS011;1113;42.018;23.986;2023-07-13T05:49:15;20.23;;;15.10;;
2213;SDS011;1113;42.018;23.986;2023-07-13T05:51:42;18.47;;;16.67;;
2213;SDS011;1113;42.018;23.986;2023-07-13T05:54:11;22.57;;;20.23;;
2213;SDS011;1113;42.018;23.986;2023-07-13T05:56:38;22.93;;;20.70;;
2213;SDS011;1113;42.018;23.986;2023-07-13T05:59:05;21.67;;;19.60;;
2213;SDS011;1113;42.018;23.986;2023-07-13T06:01:32;21.83;;;18.53;;
2213;SDS011;1113;42.018;23.986;2023-07-13T06:03:59;21.83;;;19.50;;
2213;SDS011;1113;42.018;23.986;2023-07-13T06:06:26;26.10;;;21.90;;
2213;SDS011;1113;42.018;23.986;2023-07-13T06:08:53;25.00;;;19.00;;
2213;SDS011;1113;42.018;23.986;2023-07-13T06:11:22;19.30;;;17.00;;
2213;SDS011;1113;42.018;23.986;2023-07-13T06:13:49;19.37;;;17.17;;
2213;SDS011;1113;42.018;23.986;2023-07-13T06:16:16;19.13;;;16.40;;
2213;SDS011;1113;42.018;23.986;2023-07-13T06:18:44;18.33;;;16.43;;
2213;SDS011;1113;42.018;23.986;2023-07-13T06:21:12;19.10;;;15.80;;
2213;SDS011;1113;42.018;23.986;2023-07-13T06:23:39;25.93;;;18.70;;
2213;SDS011;1113;42.018;23.986;2023-07-13T06:26:08;19.63;;;17.60;;
2213;SDS011;1113;42.018;23.986;2023-07-13T06:28:37;22.30;;;18.43;;
2213;SDS011;1113;42.018;23.986;2023-07-13T06:31:05;20.47;;;17.23;;
2213;SDS011;1113;42.018;23.986;2023-07-13T06:33:32;17.83;;;16.13;;
2213;SDS011;1113;42.018;23.986;2023-07-13T06:35:59;19.00;;;17.00;;
2213;SDS011;1113;42.018;23.986;2023-07-13T06:38:26;17.87;;;15.97;;
2213;SDS011;1113;42.018;23.986;2023-07-13T06:40:53;19.10;;;16.30;;
2213;SDS011;1113;42.018;23.986;2023-07-13T06:43:20;17.70;;;16.00;;
2213;SDS011;1113;42.018;23.986;2023-07-13T06:45:49;19.50;;;15.40;;
2213;SDS011;1113;42.018;23.986;2023-07-13T06:48:18;14.83;;;13.37;;
2213;SDS011;1113;42.018;23.986;2023-07-13T06:50:46;16.47;;;14.77;;
2213;SDS011;1113;42.018;23.986;2023-07-13T06:53:13;15.97;;;14.17;;
2213;SDS011;1113;42.018;23.986;2023-07-13T06:55:40;15.17;;;13.53;;
2213;SDS011;1113;42.018;23.986;2023-07-13T06:58:06;13.80;;;12.33;;
2213;SDS011;1113;42.018;23.986;2023-07-13T07:00:33;18.43;;;13.67;;
2213;SDS011;1113;42.018;23.986;2023-07-13T07:03:02;14.60;;;12.97;;
2213;SDS011;1113;42.018;23.986;2023-07-13T07:05:29;12.83;;;11.53;;
2213;SDS011;1113;42.018;23.986;2023-07-13T07:07:56;17.93;;;12.40;;
2213;SDS011;1113;42.018;23.986;2023-07-13T07:10:23;14.40;;;12.23;;
2213;SDS011;1113;42.018;23.986;2023-07-13T07:12:50;13.77;;;12.23;;
2213;SDS011;1113;42.018;23.986;2023-07-13T07:15:17;14.20;;;12.80;;
2213;SDS011;1113;42.018;23.986;2023-07-13T07:17:44;13.63;;;11.40;;
2213;SDS011;1113;42.018;23.986;2023-07-13T07:20:13;14.30;;;11.30;;
2213;SDS011;1113;42.018;23.986;2023-07-13T07:22:40;19.60;;;12.60;;
2213;SDS011;1113;42.018;23.986;2023-07-13T07:25:07;15.43;;;12.60;;
2213;SDS011;1113;42.018;23.986;2023-07-13T07:27:34;12.50;;;11.17;;
2213;SDS011;1113;42.018;23.986;2023-07-13T07:30:01;12.67;;;11.37;;
2213;SDS011;1113;42.018;23.986;2023-07-13T07:32:29;19.37;;;11.70;;
2213;SDS011;1113;42.018;23.986;2023-07-13T07:34:56;15.50;;;11.00;;
2213;SDS011;1113;42.018;23.986;2023-07-13T07:37:24;11.20;;;9.40;;
2213;SDS011;1113;42.018;23.986;2023-07-13T07:39:52;17.20;;;10.20;;
2213;SDS011;1113;42.018;23.986;2023-07-13T07:42:19;10.93;;;9.73;;
2213;SDS011;1113;42.018;23.986;2023-07-13T07:44:46;12.20;;;10.90;;
2213;SDS011;1113;42.018;23.986;2023-07-13T07:47:14;10.17;;;9.17;;
2213;SDS011;1113;42.018;23.986;2023-07-13T07:49:41;15.77;;;9.93;;
2213;SDS011;1113;42.018;23.986;2023-07-13T07:52:08;33.90;;;12.40;;
2213;SDS011;1113;42.018;23.986;2023-07-13T07:54:37;10.10;;;8.27;;
2213;SDS011;1113;42.018;23.986;2023-07-13T07:57:04;12.17;;;9.47;;
2213;SDS011;1113;42.018;23.986;2023-07-13T07:59:31;10.43;;;9.10;;
2213;SDS011;1113;42.018;23.986;2023-07-13T08:01:58;10.13;;;9.23;;
2213;SDS011;1113;42.018;23.986;2023-07-13T08:07:27;11.30;;;9.30;;
2213;SDS011;1113;42.018;23.986;2023-07-13T08:09:56;10.33;;;8.70;;
2213;SDS011;1113;42.018;23.986;2023-07-13T08:12:22;12.97;;;10.07;;
2213;SDS011;1113;42.018;23.986;2023-07-13T08:14:50;9.33;;;8.53;;
2213;SDS011;1113;42.018;23.986;2023-07-13T08:17:18;10.03;;;9.03;;
2213;SDS011;1113;42.018;23.986;2023-07-13T08:19:45;10.57;;;9.47;;
2213;SDS011;1113;42.018;23.986;2023-07-13T08:22:12;10.30;;;8.93;;
2213;SDS011;1113;42.018;23.986;2023-07-13T08:24:40;12.43;;;9.43;;
2213;SDS011;1113;42.018;23.986;2023-07-13T08:27:10;12.00;;;9.93;;
2213;SDS011;1113;42.018;23.986;2023-07-13T08:29:37;10.00;;;9.10;;
2213;SDS011;1113;42.018;23.986;2023-07-13T08:32:05;10.50;;;9.33;;
2213;SDS011;1113;42.018;23.986;2023-07-13T08:34:34;9.47;;;8.57;;
2213;SDS011;1113;42.018;23.986;2023-07-13T08:37:01;9.53;;;8.53;;
2213;SDS011;1113;42.018;23.986;2023-07-13T08:39:29;10.57;;;9.47;;
2213;SDS011;1113;42.018;23.986;2023-07-13T08:41:58;9.90;;;8.57;;
2213;SDS011;1113;42.018;23.986;2023-07-13T08:44:30;9.70;;;7.90;;
2213;SDS011;1113;42.018;23.986;2023-07-13T08:47:03;8.33;;;7.50;;
2213;SDS011;1113;42.018;23.986;2023-07-13T08:49:31;9.67;;;8.33;;
2213;SDS011;1113;42.018;23.986;2023-07-13T08:52:00;13.93;;;8.30;;
2213;SDS011;1113;42.018;23.986;2023-07-13T08:54:29;11.10;;;8.80;;
2213;SDS011;1113;42.018;23.986;2023-07-13T08:56:57;8.80;;;7.73;;
2213;SDS011;1113;42.018;23.986;2023-07-13T08:59:30;9.20;;;8.37;;
2213;SDS011;1113;42.018;23.986;2023-07-13T09:02:09;8.50;;;7.30;;
2213;SDS011;1113;42.018;23.986;2023-07-13T09:04:42;8.10;;;7.30;;
2213;SDS011;1113;42.018;23.986;2023-07-13T09:07:14;8.17;;;7.23;;
2213;SDS011;1113;42.018;23.986;2023-07-13T09:09:47;7.33;;;6.60;;
2213;SDS011;1113;42.018;23.986;2023-07-13T09:12:19;9.00;;;7.43;;
2213;SDS011;1113;42.018;23.986;2023-07-13T09:14:51;7.10;;;6.40;;
2213;SDS011;1113;42.018;23.986;2023-07-13T09:17:20;7.67;;;6.87;;
2213;SDS011;1113;42.018;23.986;2023-07-13T09:19:51;8.77;;;7.60;;
2213;SDS011;1113;42.018;23.986;2023-07-13T09:22:20;9.87;;;7.53;;
2213;SDS011;1113;42.018;23.986;2023-07-13T09:24:50;7.10;;;6.40;;
2213;SDS011;1113;42.018;23.986;2023-07-13T09:27:21;10.73;;;7.73;;
2213;SDS011;1113;42.018;23.986;2023-07-13T09:29:52;7.77;;;6.97;;
2213;SDS011;1113;42.018;23.986;2023-07-13T09:32:21;7.57;;;6.83;;
2213;SDS011;1113;42.018;23.986;2023-07-13T09:34:50;8.83;;;6.90;;
2213;SDS011;1113;42.018;23.986;2023-07-13T09:37:17;13.40;;;7.30;;
2213;SDS011;1113;42.018;23.986;2023-07-13T09:39:44;7.37;;;6.40;;
2213;SDS011;1113;42.018;23.986;2023-07-13T09:42:12;8.77;;;6.73;;
2213;SDS011;1113;42.018;23.986;2023-07-13T09:44:44;14.67;;;6.87;;
2213;SDS011;1113;42.018;23.986;2023-07-13T09:47:19;7.33;;;6.30;;
2213;SDS011;1113;42.018;23.986;2023-07-13T09:49:48;19.83;;;7.80;;
2213;SDS011;1113;42.018;23.986;2023-07-13T09:52:20;7.23;;;5.87;;
2213;SDS011;1113;42.018;23.986;2023-07-13T09:54:48;8.30;;;6.80;;
2213;SDS011;1113;42.018;23.986;2023-07-13T09:57:16;10.40;;;6.57;;
2213;SDS011;1113;42.018;23.986;2023-07-13T09:59:44;10.30;;;6.67;;
2213;SDS011;1113;42.018;23.986;2023-07-13T10:02:25;8.63;;;6.20;;
2213;SDS011;1113;42.018;23.986;2023-07-13T10:04:56;8.67;;;6.40;;
2213;SDS011;1113;42.018;23.986;2023-07-13T10:07:24;6.40;;;5.17;;
2213;SDS011;1113;42.018;23.986;2023-07-13T10:09:51;8.33;;;6.30;;
2213;SDS011;1113;42.018;23.986;2023-07-13T10:12:18;10.70;;;6.40;;
2213;SDS011;1113;42.018;23.986;2023-07-13T10:14:45;7.20;;;5.43;;
2213;SDS011;1113;42.018;23.986;2023-07-13T10:17:13;7.60;;;5.40;;
2213;SDS011;1113;42.018;23.986;2023-07-13T10:19:42;10.23;;;6.07;;
2213;SDS011;1113;42.018;23.986;2023-07-13T10:22:13;6.77;;;5.10;;
2213;SDS011;1113;42.018;23.986;2023-07-13T10:24:41;7.63;;;5.33;;
2213;SDS011;1113;42.018;23.986;2023-07-13T10:27:10;7.10;;;5.20;;
2213;SDS011;1113;42.018;23.986;2023-07-13T10:29:42;7.70;;;5.80;;
2213;SDS011;1113;42.018;23.986;2023-07-13T10:32:10;8.00;;;5.70;;
2213;SDS011;1113;42.018;23.986;2023-07-13T10:34:38;6.07;;;5.20;;
2213;SDS011;1113;42.018;23.986;2023-07-13T10:37:06;8.17;;;6.00;;
2213;SDS011;1113;42.018;23.986;2023-07-13T10:39:36;10.33;;;6.70;;
2213;SDS011;1113;42.018;23.986;2023-07-13T10:42:04;12.93;;;6.00;;
2213;SDS011;1113;42.018;23.986;2023-07-13T10:44:32;9.17;;;6.10;;
2213;SDS011;1113;42.018;23.986;2023-07-13T10:47:00;8.50;;;6.13;;
2213;SDS011;1113;42.018;23.986;2023-07-13T10:49:28;8.20;;;6.50;;
2213;SDS011;1113;42.018;23.986;2023-07-13T10:51:56;19.10;;;7.60;;
2213;SDS011;1113;42.018;23.986;2023-07-13T10:54:27;11.60;;;6.77;;
2213;SDS011;1113;42.018;23.986;2023-07-13T10:57:07;9.87;;;6.60;;
2213;SDS011;1113;42.018;23.986;2023-07-13T10:59:34;8.30;;;5.60;;
2213;SDS011;1113;42.018;23.986;2023-07-13T11:02:08;13.20;;;6.50;;
2213;SDS011;1113;42.018;23.986;2023-07-13T11:04:40;8.10;;;5.63;;
2213;SDS011;1113;42.018;23.986;2023-07-13T11:07:10;13.03;;;6.07;;
2213;SDS011;1113;42.018;23.986;2023-07-13T11:09:39;9.67;;;6.40;;
2213;SDS011;1113;42.018;23.986;2023-07-13T11:12:07;13.07;;;5.60;;
2213;SDS011;1113;42.018;23.986;2023-07-13T11:14:35;8.47;;;5.60;;
2213;SDS011;1113;42.018;23.986;2023-07-13T11:19:51;11.00;;;6.17;;
2213;SDS011;1113;42.018;23.986;2023-07-13T11:22:22;11.20;;;6.00;;
2213;SDS011;1113;42.018;23.986;2023-07-13T11:24:58;31.57;;;8.97;;
2213;SDS011;1113;42.018;23.986;2023-07-13T11:27:36;11.30;;;6.20;;
2213;SDS011;1113;42.018;23.986;2023-07-13T11:30:07;11.33;;;6.07;;
2213;SDS011;1113;42.018;23.986;2023-07-13T11:32:35;12.33;;;5.87;;
2213;SDS011;1113;42.018;23.986;2023-07-13T11:35:02;10.17;;;5.70;;
2213;SDS011;1113;42.018;23.986;2023-07-13T11:37:30;12.03;;;5.87;;
2213;SDS011;1113;42.018;23.986;2023-07-13T11:39:58;9.60;;;5.80;;
2213;SDS011;1113;42.018;23.986;2023-07-13T11:42:25;30.60;;;8.00;;
2213;SDS011;1113;42.018;23.986;2023-07-13T11:44:52;11.50;;;5.10;;
2213;SDS011;1113;42.018;23.986;2023-07-13T11:47:21;11.50;;;5.80;;
2213;SDS011;1113;42.018;23.986;2023-07-13T11:49:49;11.93;;;5.70;;
2213;SDS011;1113;42.018;23.986;2023-07-13T11:52:22;10.20;;;6.03;;
2213;SDS011;1113;42.018;23.986;2023-07-13T11:54:50;13.10;;;6.67;;
2213;SDS011;1113;42.018;23.986;2023-07-13T11:57:23;14.70;;;5.83;;
2213;SDS011;1113;42.018;23.986;2023-07-13T11:59:51;12.40;;;5.73;;
2213;SDS011;1113;42.018;23.986;2023-07-13T12:02:23;12.07;;;5.10;;
2213;SDS011;1113;42.018;23.986;2023-07-13T12:04:52;6.73;;;5.20;;
2213;SDS011;1113;42.018;23.986;2023-07-13T12:10:23;9.03;;;5.60;;
2213;SDS011;1113;42.018;23.986;2023-07-13T12:12:53;9.47;;;6.03;;
2213;SDS011;1113;42.018;23.986;2023-07-13T12:15:22;9.07;;;5.87;;
2213;SDS011;1113;42.018;23.986;2023-07-13T12:17:49;13.13;;;6.00;;
2213;SDS011;1113;42.018;23.986;2023-07-13T12:20:19;7.57;;;5.33;;
2213;SDS011;1113;42.018;23.986;2023-07-13T12:22:47;14.30;;;5.93;;
2213;SDS011;1113;42.018;23.986;2023-07-13T12:25:14;14.37;;;6.80;;
2213;SDS011;1113;42.018;23.986;2023-07-13T12:27:42;9.47;;;6.37;;
2213;SDS011;1113;42.018;23.986;2023-07-13T12:30:25;8.17;;;5.50;;
2213;SDS011;1113;42.018;23.986;2023-07-13T12:32:56;12.47;;;6.47;;
2213;SDS011;1113;42.018;23.986;2023-07-13T12:35:24;10.57;;;5.40;;
2213;SDS011;1113;42.018;23.986;2023-07-13T12:37:52;10.30;;;5.57;;
2213;SDS011;1113;42.018;23.986;2023-07-13T12:40:20;22.20;;;7.07;;
2213;SDS011;1113;42.018;23.986;2023-07-13T12:42:47;9.47;;;6.00;;
2213;SDS011;1113;42.018;23.986;2023-07-13T12:45:18;12.67;;;5.87;;
2213;SDS011;1113;42.018;23.986;2023-07-13T12:47:49;10.90;;;6.40;;
2213;SDS011;1113;42.018;23.986;2023-07-13T12:50:22;9.40;;;5.67;;
2213;SDS011;1113;42.018;23.986;2023-07-13T12:52:50;17.77;;;6.33;;
2213;SDS011;1113;42.018;23.986;2023-07-13T12:55:18;7.60;;;5.83;;
2213;SDS011;1113;42.018;23.986;2023-07-13T12:57:47;7.47;;;6.00;;
2213;SDS011;1113;42.018;23.986;2023-07-13T13:00:21;7.73;;;5.77;;
2213;SDS011;1113;42.018;23.986;2023-07-13T13:02:52;11.87;;;7.33;;
2213;SDS011;1113;42.018;23.986;2023-07-13T13:05:19;13.50;;;6.10;;
2213;SDS011;1113;42.018;23.986;2023-07-13T13:07:50;12.80;;;6.70;;
2213;SDS011;1113;42.018;23.986;2023-07-13T13:10:17;11.13;;;6.37;;
2213;SDS011;1113;42.018;23.986;2023-07-13T13:12:46;7.03;;;6.33;;
2213;SDS011;1113;42.018;23.986;2023-07-13T13:15:13;10.27;;;6.40;;
2213;SDS011;1113;42.018;23.986;2023-07-13T13:17:42;11.53;;;7.40;;
2213;SDS011;1113;42.018;23.986;2023-07-13T13:20:16;8.67;;;6.10;;
2213;SDS011;1113;42.018;23.986;2023-07-13T13:22:43;11.63;;;5.83;;
2213;SDS011;1113;42.018;23.986;2023-07-13T13:25:10;9.33;;;6.27;;
2213;SDS011;1113;42.018;23.986;2023-07-13T13:27:37;16.30;;;6.57;;
2213;SDS011;1113;42.018;23.986;2023-07-13T13:30:08;14.70;;;6.20;;
2213;SDS011;1113;42.018;23.986;2023-07-13T13:32:38;13.30;;;5.70;;
2213;SDS011;1113;42.018;23.986;2023-07-13T13:35:05;11.50;;;5.83;;
2213;SDS011;1113;42.018;23.986;2023-07-13T13:37:34;6.80;;;5.27;;
2213;SDS011;1113;42.018;23.986;2023-07-13T13:40:02;24.27;;;7.70;;
2213;SDS011;1113;42.018;23.986;2023-07-13T13:42:29;10.60;;;6.07;;
2213;SDS011;1113;42.018;23.986;2023-07-13T13:44:56;11.90;;;5.67;;
2213;SDS011;1113;42.018;23.986;2023-07-13T13:47:27;16.53;;;6.00;;
2213;SDS011;1113;42.018;23.986;2023-07-13T13:49:55;7.33;;;5.40;;
2213;SDS011;1113;42.018;23.986;2023-07-13T13:52:23;8.47;;;6.10;;
2213;SDS011;1113;42.018;23.986;2023-07-13T13:54:52;11.13;;;5.93;;
2213;SDS011;1113;42.018;23.986;2023-07-13T13:57:22;9.97;;;6.60;;
2213;SDS011;1113;42.018;23.986;2023-07-13T13:59:50;10.07;;;5.80;;
2213;SDS011;1113;42.018;23.986;2023-07-13T14:02:22;6.13;;;4.87;;
2213;SDS011;1113;42.018;23.986;2023-07-13T14:07:22;15.00;;;6.63;;
2213;SDS011;1113;42.018;23.986;2023-07-13T14:09:49;10.13;;;5.60;;
2213;SDS011;1113;42.018;23.986;2023-07-13T14:12:18;6.37;;;5.40;;
2213;SDS011;1113;42.018;23.986;2023-07-13T14:14:45;7.30;;;5.67;;
2213;SDS011;1113;42.018;23.986;2023-07-13T14:17:16;10.17;;;6.17;;
2213;SDS011;1113;42.018;23.986;2023-07-13T14:19:47;10.17;;;5.77;;
2213;SDS011;1113;42.018;23.986;2023-07-13T14:22:16;9.73;;;6.20;;
2213;SDS011;1113;42.018;23.986;2023-07-13T14:24:43;10.13;;;5.80;;
2213;SDS011;1113;42.018;23.986;2023-07-13T14:27:10;9.57;;;5.70;;
2213;SDS011;1113;42.018;23.986;2023-07-13T14:29:38;11.53;;;6.13;;
2213;SDS011;1113;42.018;23.986;2023-07-13T14:32:08;7.20;;;5.83;;
2213;SDS011;1113;42.018;23.986;2023-07-13T14:34:36;12.73;;;6.50;;
2213;SDS011;1113;42.018;23.986;2023-07-13T14:37:03;10.80;;;5.50;;
2213;SDS011;1113;42.018;23.986;2023-07-13T14:39:31;9.90;;;6.60;;
2213;SDS011;1113;42.018;23.986;2023-07-13T14:41:58;11.20;;;6.13;;
2213;SDS011;1113;42.018;23.986;2023-07-13T14:44:26;11.70;;;6.00;;
2213;SDS011;1113;42.018;23.986;2023-07-13T14:46:55;10.55;;;5.55;;
2213;SDS011;1113;42.018;23.986;2023-07-13T14:49:24;9.93;;;5.80;;
2213;SDS011;1113;42.018;23.986;2023-07-13T14:51:51;13.77;;;5.67;;
2213;SDS011;1113;42.018;23.986;2023-07-13T14:54:19;8.25;;;5.88;;
2213;SDS011;1113;42.018;23.986;2023-07-13T14:56:46;10.47;;;5.73;;
2213;SDS011;1113;42.018;23.986;2023-07-13T14:59:13;7.97;;;5.43;;
2213;SDS011;1113;42.018;23.986;2023-07-13T15:01:40;6.78;;;5.93;;